Time;durP1;ratioP1;P1;durP2;ratioP2;P2;SDS_P1;SDS_P2;PMS_P1;PMS_P2;Temp;Humidity;BMP_temperature;BMP_pressure;BME280_temperature;BME280_humidity;BME280_pressure;Samples;Min_cycle;Max_cycle;Signal;HPM_P1;HPM_P2
2023/04/11 00:01:34;;;;;;;2.38;0.60;;;13.70;53.30;;;;;;4987047;28;20050;-44
2023/04/11 00:04:02;;;;;;;2.17;0.60;;;13.70;53.20;;;;;;4979329;28;20054;-44
2023/04/11 00:06:32;;;;;;;2.65;0.60;;;13.60;53.20;;;;;;4984135;28;20054;-47
2023/04/11 00:08:59;;;;;;;2.13;0.68;;;13.70;53.20;;;;;;4983714;28;20061;-43
2023/04/11 00:11:28;;;;;;;4.13;0.73;;;13.60;53.20;;;;;;4977313;28;20073;-46
2023/04/11 00:13:56;;;;;;;1.38;0.57;;;13.60;53.20;;;;;;4984181;28;20046;-45
2023/04/11 00:16:25;;;;;;;1.95;0.50;;;13.50;53.20;;;;;;4985857;28;20061;-46
2023/04/11 00:18:52;;;;;;;2.28;0.60;;;13.50;53.20;;;;;;4986866;28;20560;-45
2023/04/11 00:21:20;;;;;;;1.17;0.50;;;13.50;53.20;;;;;;4975317;28;20054;-44
2023/04/11 00:23:49;;;;;;;1.52;0.70;;;13.50;53.20;;;;;;4988800;28;20056;-44
2023/04/11 00:26:16;;;;;;;4.28;0.65;;;13.50;53.30;;;;;;4986258;28;20523;-45
2023/04/11 00:28:43;;;;;;;2.67;0.38;;;13.50;53.30;;;;;;4981513;28;20065;-46
2023/04/11 00:31:11;;;;;;;2.92;0.93;;;13.50;53.30;;;;;;4979349;28;20045;-46
2023/04/11 00:33:38;;;;;;;4.10;0.95;;;13.50;53.30;;;;;;4993332;28;20137;-46
2023/04/11 00:36:06;;;;;;;3.97;0.70;;;13.50;53.30;;;;;;4985990;28;20414;-45
2023/04/11 00:38:33;;;;;;;2.97;0.75;;;13.50;53.30;;;;;;4981189;28;20054;-43
2023/04/11 00:41:01;;;;;;;1.08;0.43;;;13.50;53.30;;;;;;4977561;28;20535;-44
2023/04/11 00:43:29;;;;;;;5.30;1.00;;;13.50;53.20;;;;;;4978081;28;20415;-45
2023/04/11 00:45:56;;;;;;;6.38;0.70;;;13.50;53.20;;;;;;4986838;28;20402;-46
2023/04/11 00:48:27;;;;;;;3.13;0.65;;;13.50;53.20;;;;;;4982267;28;20161;-44
2023/04/11 00:50:54;;;;;;;1.80;0.68;;;13.50;53.10;;;;;;4980190;28;20050;-47
2023/04/11 00:53:22;;;;;;;3.05;0.70;;;13.50;53.10;;;;;;4990399;28;20053;-47
2023/04/11 00:55:50;;;;;;;1.88;0.60;;;13.50;53.10;;;;;;4996822;28;20054;-44
2023/04/11 00:58:18;;;;;;;2.58;0.57;;;13.50;53.10;;;;;;4986752;28;20046;-45
2023/04/11 01:00:48;;;;;;;1.40;0.45;;;13.50;53.60;;;;;;4988565;28;20057;-45
2023/04/11 01:03:17;;;;;;;1.60;0.70;;;13.50;53.10;;;;;;4989216;28;20050;-45
2023/04/11 01:05:46;;;;;;;3.88;0.65;;;13.50;53.00;;;;;;4984556;28;20054;-47
2023/04/11 01:08:15;;;;;;;2.55;0.75;;;13.50;53.00;;;;;;4985830;28;20046;-45
2023/04/11 01:10:42;;;;;;;1.95;0.50;;;13.50;53.00;;;;;;4980562;28;20637;-45
2023/04/11 01:13:10;;;;;;;3.75;0.70;;;13.50;53.00;;;;;;4980162;28;20053;-44
2023/04/11 01:15:38;;;;;;;2.30;0.60;;;13.50;52.90;;;;;;4989429;28;20505;-45
2023/04/11 01:18:07;;;;;;;2.92;1.10;;;13.50;52.90;;;;;;4986410;28;20065;-45
2023/04/11 01:20:35;;;;;;;5.22;1.10;;;13.50;52.90;;;;;;4982381;28;20069;-47
2023/04/11 01:23:02;;;;;;;6.35;1.00;;;13.50;52.90;;;;;;4988812;28;20042;-44
2023/04/11 01:25:34;;;;;;;6.95;0.80;;;13.50;52.90;;;;;;4992185;28;20439;-46
2023/04/11 01:28:02;;;;;;;5.95;1.23;;;13.50;52.90;;;;;;4994160;28;20049;-44
2023/04/11 01:30:31;;;;;;;3.42;0.70;;;13.50;52.80;;;;;;4986785;28;20073;-44
2023/04/11 01:32:58;;;;;;;6.32;0.90;;;13.50;52.70;;;;;;4987443;28;20055;-47
2023/04/11 01:35:26;;;;;;;1.73;0.80;;;13.50;52.70;;;;;;4986783;28;20058;-47
2023/04/11 01:37:53;;;;;;;5.35;1.00;;;13.50;52.70;;;;;;4987658;28;20506;-45
2023/04/11 01:40:22;;;;;;;3.35;0.73;;;13.40;52.60;;;;;;4984612;28;20062;-44
2023/04/11 01:42:51;;;;;;;5.03;1.05;;;13.50;52.70;;;;;;4990453;28;20050;-44
2023/04/11 01:45:20;;;;;;;4.85;1.17;;;13.40;52.60;;;;;;4982129;28;20051;-44
2023/04/11 01:47:47;;;;;;;7.25;1.10;;;13.40;52.60;;;;;;4993183;28;20054;-45
2023/04/11 01:50:14;;;;;;;4.78;0.93;;;13.40;52.60;;;;;;4985570;28;20046;-47
2023/04/11 01:52:42;;;;;;;4.70;1.00;;;13.40;52.50;;;;;;4982342;28;20557;-48
2023/04/11 01:55:09;;;;;;;6.45;1.02;;;13.40;52.50;;;;;;4983207;28;20054;-46
2023/04/11 01:57:36;;;;;;;6.55;1.38;;;13.40;52.40;;;;;;4990090;28;20053;-46
2023/04/11 02:00:09;;;;;;;5.38;1.08;;;13.30;52.40;;;;;;4987788;28;20517;-45
2023/04/11 02:02:37;;;;;;;5.20;1.25;;;13.40;52.40;;;;;;4979443;28;20069;-45
2023/04/11 02:05:05;;;;;;;3.85;1.15;;;13.30;52.30;;;;;;4978974;28;20128;-44
2023/04/11 02:07:32;;;;;;;6.20;1.10;;;13.30;52.30;;;;;;4986199;28;20469;-44
2023/04/11 02:10:00;;;;;;;5.40;0.90;;;13.30;52.30;;;;;;4982936;28;20430;-45
2023/04/11 02:12:27;;;;;;;5.80;1.27;;;13.30;52.30;;;;;;4992939;28;20049;-44
2023/04/11 02:14:54;;;;;;;6.65;1.05;;;13.30;52.20;;;;;;4983083;28;20069;-45
2023/04/11 02:17:29;;;;;;;5.22;1.00;;;13.30;52.20;;;;;;4985693;28;20049;-44
2023/04/11 02:19:56;;;;;;;5.03;1.05;;;13.30;52.10;;;;;;4986041;28;20114;-44
2023/04/11 02:22:24;;;;;;;6.68;1.42;;;13.30;52.60;;;;;;4994701;28;20058;-44
2023/04/11 02:24:52;;;;;;;22.27;6.82;;;13.30;52.10;;;;;;4985026;28;20053;-46
2023/04/11 02:27:19;;;;;;;20.20;6.68;;;13.30;52.10;;;;;;4993151;28;20426;-44
2023/04/11 02:29:46;;;;;;;12.32;2.33;;;13.20;52.00;;;;;;4989406;28;20050;-44
2023/04/11 02:32:13;;;;;;;5.97;1.45;;;13.20;52.00;;;;;;4984493;28;20065;-45
2023/04/11 02:34:42;;;;;;;6.95;2.17;;;13.20;52.10;;;;;;4996333;28;20061;-45
2023/04/11 02:37:10;;;;;;;7.95;2.15;;;13.20;52.10;;;;;;4981367;28;20068;-44
2023/04/11 02:39:37;;;;;;;4.93;1.30;;;13.20;52.10;;;;;;4983013;28;20050;-43
2023/04/11 02:42:05;;;;;;;9.10;1.70;;;13.20;52.10;;;;;;4989406;28;20356;-44
2023/04/11 02:44:35;;;;;;;8.30;1.70;;;13.20;52.20;;;;;;4990644;28;20050;-45
2023/04/11 02:47:02;;;;;;;8.27;1.30;;;13.20;52.20;;;;;;4973154;28;20050;-44
2023/04/11 02:49:30;;;;;;;5.50;1.17;;;13.20;52.20;;;;;;4990954;28;20423;-43
2023/04/11 02:51:58;;;;;;;8.35;1.77;;;13.20;52.20;;;;;;4985965;28;20050;-46
2023/04/11 02:54:25;;;;;;;12.40;2.20;;;13.20;52.20;;;;;;4982595;28;20478;-45
2023/04/11 02:56:54;;;;;;;7.60;1.52;;;13.20;52.10;;;;;;4983916;28;20410;-44
2023/04/11 02:59:22;;;;;;;4.80;1.50;;;13.20;52.00;;;;;;4987047;28;20058;-53
2023/04/11 03:01:49;;;;;;;10.75;2.28;;;13.20;52.00;;;;;;4985707;28;20050;-44
2023/04/11 03:04:16;;;;;;;10.95;1.70;;;13.10;51.90;;;;;;4981350;28;20655;-43
2023/04/11 03:06:43;;;;;;;20.20;1.77;;;13.10;51.90;;;;;;4987948;28;20050;-46
2023/04/11 03:09:12;;;;;;;12.70;2.25;;;13.10;51.90;;;;;;4990903;28;20065;-48
2023/04/11 03:11:39;;;;;;;15.95;2.00;;;13.10;51.90;;;;;;4989660;28;20784;-43
2023/04/11 03:14:06;;;;;;;14.07;2.10;;;13.10;51.90;;;;;;4981983;28;20576;-48
2023/04/11 03:16:34;;;;;;;9.73;2.20;;;13.10;52.40;;;;;;4987343;28;20065;-43
2023/04/11 03:19:01;;;;;;;12.07;1.92;;;13.10;51.90;;;;;;4987075;28;20065;-44
2023/04/11 03:21:30;;;;;;;10.18;2.40;;;13.10;51.90;;;;;;4991435;28;20065;-43
2023/04/11 03:23:57;;;;;;;8.40;1.95;;;13.10;51.90;;;;;;4982274;28;20061;-44
2023/04/11 03:26:26;;;;;;;14.32;2.13;;;13.10;51.90;;;;;;4982761;28;20057;-45
2023/04/11 03:28:53;;;;;;;10.15;2.08;;;13.00;51.90;;;;;;4993419;28;20072;-44
2023/04/11 03:31:21;;;;;;;10.65;1.92;;;13.00;51.80;;;;;;4982275;28;20061;-43
2023/04/11 03:33:48;;;;;;;18.73;2.78;;;13.00;51.70;;;;;;4993833;28;20065;-45
2023/04/11 03:36:16;;;;;;;12.30;2.08;;;13.00;51.80;;;;;;4985233;28;20466;-47
2023/04/11 03:38:43;;;;;;;13.18;2.28;;;13.00;51.70;;;;;;4981411;28;20479;-47
2023/04/11 03:41:10;;;;;;;16.83;2.50;;;13.00;52.20;;;;;;4987466;28;20057;-43
2023/04/11 03:43:39;;;;;;;24.95;3.67;;;13.00;52.10;;;;;;4991541;28;20053;-44
2023/04/11 03:46:06;;;;;;;16.90;2.70;;;13.00;51.50;;;;;;4984772;28;20054;-47
2023/04/11 03:48:34;;;;;;;16.02;2.83;;;13.00;51.50;;;;;;4983532;28;20390;-43
2023/04/11 03:51:01;;;;;;;16.77;2.35;;;12.90;51.50;;;;;;4980508;28;20403;-45
2023/04/11 03:53:28;;;;;;;13.23;2.50;;;12.90;51.50;;;;;;4992096;28;20046;-46
2023/04/11 03:55:56;;;;;;;13.55;2.38;;;12.90;51.60;;;;;;4994847;28;20080;-43
2023/04/11 03:58:23;;;;;;;12.48;2.45;;;12.90;51.60;;;;;;4995108;28;20065;-44
2023/04/11 04:00:51;;;;;;;14.15;2.28;;;12.90;51.60;;;;;;4983760;28;20056;-45
2023/04/11 04:03:19;;;;;;;8.93;2.08;;;12.90;51.70;;;;;;4980473;28;20418;-45
2023/04/11 04:05:46;;;;;;;9.02;1.55;;;12.90;51.70;;;;;;4987851;28;20498;-44
2023/04/11 04:08:14;;;;;;;19.77;2.47;;;12.90;51.70;;;;;;4986927;28;20054;-43
2023/04/11 04:10:41;;;;;;;22.83;3.25;;;12.90;51.60;;;;;;4994184;28;20065;-43
2023/04/11 04:13:08;;;;;;;18.85;2.50;;;12.90;51.60;;;;;;4984253;28;20065;-45
2023/04/11 04:15:37;;;;;;;11.20;2.10;;;12.90;52.00;;;;;;4982168;28;20058;-46
2023/04/11 04:18:06;;;;;;;11.55;1.98;;;12.90;51.50;;;;;;4976030;28;20050;-43
2023/04/11 04:20:35;;;;;;;12.93;2.42;;;12.80;51.50;;;;;;4983263;28;20505;-46
2023/04/11 04:23:03;;;;;;;19.67;2.80;;;12.80;51.50;;;;;;4987397;28;20060;-43
2023/04/11 04:25:30;;;;;;;12.10;2.10;;;12.90;51.50;;;;;;4983025;28;20521;-46
2023/04/11 04:27:59;;;;;;;14.23;3.00;;;12.80;51.40;;;;;;4986595;28;20050;-44
2023/04/11 04:30:27;;;;;;;20.02;2.35;;;12.80;51.40;;;;;;4989425;28;20064;-44
2023/04/11 04:32:57;;;;;;;8.85;1.77;;;12.80;51.40;;;;;;4986429;28;20058;-43
2023/04/11 04:35:26;;;;;;;19.75;2.67;;;12.80;51.30;;;;;;4980128;28;20069;-43
2023/04/11 04:37:53;;;;;;;16.55;2.78;;;12.80;51.30;;;;;;4985464;28;20061;-43
2023/04/11 04:40:21;;;;;;;11.68;2.20;;;12.80;51.30;;;;;;4984075;28;20503;-46
2023/04/11 04:42:56;;;;;;;13.82;2.28;;;12.80;51.30;;;;;;4982010;28;20067;-43
2023/04/11 04:45:24;;;;;;;14.63;2.75;;;12.80;51.30;;;;;;4984807;28;20054;-43
2023/04/11 04:47:52;;;;;;;19.10;3.20;;;12.80;51.20;;;;;;4984647;28;20077;-45
2023/04/11 04:50:19;;;;;;;18.08;3.25;;;12.80;51.30;;;;;;4980220;28;20062;-43
2023/04/11 04:52:48;;;;;;;11.70;2.17;;;12.80;51.20;;;;;;4984926;28;20498;-46
2023/04/11 04:55:15;;;;;;;18.33;2.85;;;12.70;51.10;;;;;;4973596;28;20063;-44
2023/04/11 04:57:43;;;;;;;11.07;2.13;;;12.70;51.10;;;;;;4978732;28;20588;-46
2023/04/11 05:00:12;;;;;;;12.95;2.10;;;12.70;51.10;;;;;;4979644;28;20054;-46
2023/04/11 05:02:40;;;;;;;13.15;2.17;;;12.70;51.20;;;;;;4989740;28;20054;-44
2023/04/11 05:05:08;;;;;;;14.93;2.22;;;12.70;51.10;;;;;;4978959;28;20172;-43
2023/04/11 05:07:36;;;;;;;19.40;2.63;;;12.70;51.10;;;;;;4984003;28;20440;-43
2023/04/11 05:10:05;;;;;;;35.95;2.50;;;12.70;51.10;;;;;;4977174;28;20065;-43
2023/04/11 05:12:35;;;;;;;11.43;2.00;;;12.60;51.10;;;;;;4983269;28;20069;-45
2023/04/11 05:15:03;;;;;;;17.80;2.67;;;12.70;51.60;;;;;;4982319;28;20046;-45
2023/04/11 05:17:30;;;;;;;13.98;2.38;;;12.60;51.10;;;;;;4982834;28;20046;-44
2023/04/11 05:19:57;;;;;;;10.13;2.38;;;12.60;51.20;;;;;;4977690;28;20524;-46
2023/04/11 05:22:25;;;;;;;14.77;2.33;;;12.60;51.10;;;;;;4981277;28;20050;-44
2023/04/11 05:24:52;;;;;;;13.45;2.17;;;12.70;51.20;;;;;;4984088;28;20059;-45
2023/04/11 05:27:20;;;;;;;16.88;2.50;;;12.70;51.10;;;;;;4929846;28;20043;-43
2023/04/11 05:29:48;;;;;;;14.70;3.30;;;12.60;51.50;;;;;;4984432;28;20062;-43
2023/04/11 05:32:15;;;;;;;16.80;3.00;;;12.60;51.10;;;;;;4981911;28;20062;-44
2023/04/11 05:34:52;;;;;;;13.25;2.30;;;12.60;51.10;;;;;;4993737;28;20050;-45
2023/04/11 05:37:19;;;;;;;11.70;1.88;;;12.60;51.10;;;;;;4985628;28;20050;-44
2023/04/11 05:39:47;;;;;;;15.05;1.83;;;12.60;51.00;;;;;;4991901;28;20055;-44
2023/04/11 05:42:17;;;;;;;17.92;2.00;;;12.60;51.00;;;;;;4994739;28;20053;-46
2023/04/11 05:44:45;;;;;;;18.33;2.38;;;12.60;50.90;;;;;;4989577;28;20045;-43
2023/04/11 05:47:13;;;;;;;15.15;3.00;;;12.60;50.90;;;;;;5003309;28;20069;-46
2023/04/11 05:49:40;;;;;;;15.15;2.55;;;12.60;50.80;;;;;;4986835;28;20144;-44
2023/04/11 05:52:07;;;;;;;12.43;2.40;;;12.60;50.80;;;;;;4995216;28;20054;-43
2023/04/11 05:54:36;;;;;;;16.67;2.83;;;12.60;50.70;;;;;;4989458;28;20513;-44
2023/04/11 05:57:05;;;;;;;14.15;2.22;;;12.60;50.80;;;;;;4992217;28;20487;-44
2023/04/11 05:59:33;;;;;;;14.18;2.17;;;12.60;50.80;;;;;;4993041;28;20058;-43
2023/04/11 06:02:02;;;;;;;13.77;2.50;;;12.60;50.80;;;;;;5001544;28;20073;-43
2023/04/11 06:04:32;;;;;;;13.88;2.40;;;12.60;50.80;;;;;;4995363;28;20081;-43
2023/04/11 06:07:08;;;;;;;12.15;2.00;;;12.60;50.80;;;;;;4990078;28;20505;-43
2023/04/11 06:09:36;;;;;;;15.80;2.75;;;12.60;50.80;;;;;;4984762;28;20068;-44
2023/04/11 06:12:04;;;;;;;14.45;2.15;;;12.60;50.80;;;;;;4990493;28;20421;-45
2023/04/11 06:14:35;;;;;;;14.18;2.42;;;12.60;51.30;;;;;;4996783;28;20457;-43
2023/04/11 06:17:05;;;;;;;13.27;2.70;;;12.60;50.90;;;;;;4985038;28;20046;-43
2023/04/11 06:19:33;;;;;;;14.75;2.85;;;12.60;50.80;;;;;;4987320;28;20426;-43
2023/04/11 06:22:01;;;;;;;16.58;2.63;;;12.60;50.80;;;;;;4986293;28;20054;-44
2023/04/11 06:24:36;;;;;;;10.80;1.83;;;12.60;50.70;;;;;;4989241;28;20054;-44
2023/04/11 06:27:04;;;;;;;15.10;2.38;;;12.60;50.70;;;;;;4982557;28;20410;-44
2023/04/11 06:29:35;;;;;;;10.38;2.10;;;12.60;50.70;;;;;;4988770;28;20060;-45
2023/04/11 06:32:05;;;;;;;14.82;2.53;;;12.60;50.70;;;;;;4993080;28;20494;-43
2023/04/11 06:34:33;;;;;;;15.48;3.20;;;12.60;50.70;;;;;;4993342;28;20072;-43
2023/04/11 06:37:01;;;;;;;9.38;2.25;;;12.60;50.70;;;;;;4993046;28;20135;-44
2023/04/11 06:39:28;;;;;;;22.45;3.22;;;12.60;50.70;;;;;;4988654;28;20677;-43
2023/04/11 06:41:56;;;;;;;9.18;1.70;;;12.70;50.70;;;;;;4994097;28;20050;-43
2023/04/11 06:44:25;;;;;;;15.73;2.72;;;12.70;50.70;;;;;;4994636;28;20053;-44
2023/04/11 06:46:53;;;;;;;14.85;2.53;;;12.70;50.70;;;;;;4993079;28;20058;-44
2023/04/11 06:49:22;;;;;;;10.50;2.38;;;12.70;50.80;;;;;;4988342;28;20046;-46
2023/04/11 06:51:53;;;;;;;11.23;2.50;;;12.70;50.90;;;;;;4991361;28;20053;-43
2023/04/11 06:54:21;;;;;;;19.73;3.03;;;12.70;51.00;;;;;;4967598;28;20057;-44
2023/04/11 06:56:49;;;;;;;12.65;2.53;;;12.70;51.00;;;;;;4991461;28;20093;-43
2023/04/11 06:59:18;;;;;;;13.15;2.42;;;12.70;51.00;;;;;;4998125;28;20582;-43
2023/04/11 07:01:46;;;;;;;14.75;3.25;;;12.70;51.00;;;;;;4988373;28;20061;-43
2023/04/11 07:04:13;;;;;;;14.45;2.70;;;12.70;51.00;;;;;;4985310;28;20058;-44
2023/04/11 07:06:42;;;;;;;16.27;2.83;;;12.70;51.10;;;;;;4988580;28;20057;-43
2023/04/11 07:09:09;;;;;;;16.98;2.88;;;12.70;51.10;;;;;;4988701;28;20486;-45
2023/04/11 07:11:37;;;;;;;11.18;2.55;;;12.70;51.20;;;;;;4985504;28;20057;-43
2023/04/11 07:14:04;;;;;;;13.05;2.60;;;12.70;51.20;;;;;;4983250;28;20405;-47
2023/04/11 07:16:31;;;;;;;13.65;2.50;;;12.70;51.30;;;;;;4993507;28;20507;-45
2023/04/11 07:18:59;;;;;;;12.18;2.63;;;12.80;51.30;;;;;;4991918;28;20421;-44
2023/04/11 07:21:27;;;;;;;11.02;2.60;;;12.80;51.30;;;;;;4984442;28;20058;-43
2023/04/11 07:23:56;;;;;;;16.38;2.88;;;12.80;51.40;;;;;;4992372;28;20074;-43
2023/04/11 07:26:26;;;;;;;12.20;2.30;;;12.80;51.50;;;;;;4986813;28;20072;-47
2023/04/11 07:28:53;;;;;;;13.70;2.53;;;12.80;51.40;;;;;;4992636;28;20057;-45
2023/04/11 07:31:21;;;;;;;13.65;2.50;;;12.80;51.40;;;;;;4989311;28;20057;-47
2023/04/11 07:33:48;;;;;;;16.38;2.90;;;12.80;51.40;;;;;;4986991;28;20080;-44
2023/04/11 07:36:15;;;;;;;18.85;2.72;;;12.90;51.40;;;;;;4996464;28;20050;-44
2023/04/11 07:38:43;;;;;;;14.77;3.17;;;12.90;51.30;;;;;;4997923;28;20058;-43
2023/04/11 07:41:11;;;;;;;17.00;2.47;;;12.90;51.30;;;;;;4995147;28;20486;-45
2023/04/11 07:43:39;;;;;;;15.38;3.00;;;12.90;51.30;;;;;;4989753;28;20065;-45
2023/04/11 07:46:07;;;;;;;21.95;3.50;;;12.90;51.10;;;;;;4996976;28;20062;-44
2023/04/11 07:48:34;;;;;;;16.25;3.17;;;12.80;50.90;;;;;;4990401;28;20068;-43
2023/04/11 07:51:01;;;;;;;13.02;2.75;;;12.80;50.90;;;;;;4990178;28;20050;-43
2023/04/11 07:53:29;;;;;;;13.45;3.25;;;12.80;50.90;;;;;;4993054;28;21089;-44
2023/04/11 07:55:57;;;;;;;16.77;3.10;;;12.80;50.90;;;;;;4993653;28;20517;-46
2023/04/11 07:58:25;;;;;;;12.65;2.53;;;12.80;50.70;;;;;;4999213;28;20494;-44
2023/04/11 08:00:53;;;;;;;17.38;2.58;;;12.80;50.70;;;;;;4988190;28;20065;-43
2023/04/11 08:03:20;;;;;;;13.00;2.78;;;12.80;50.70;;;;;;4986721;28;20417;-46
2023/04/11 08:05:48;;;;;;;12.55;2.30;;;12.80;50.80;;;;;;4984067;28;20549;-45
2023/04/11 08:08:16;;;;;;;20.73;3.33;;;12.80;50.80;;;;;;4975451;28;20054;-45
2023/04/11 08:10:43;;;;;;;10.88;2.42;;;12.80;50.70;;;;;;4979104;28;20422;-45
2023/04/11 08:13:12;;;;;;;16.67;2.47;;;12.80;50.50;;;;;;4980691;28;20058;-44
2023/04/11 08:15:41;;;;;;;13.10;2.33;;;12.80;50.30;;;;;;4978215;28;20482;-44
2023/04/11 08:18:11;;;;;;;8.80;2.10;;;12.90;50.60;;;;;;4974318;28;20046;-45
2023/04/11 08:20:39;;;;;;;15.80;2.63;;;13.00;50.70;;;;;;4975998;28;20407;-45
2023/04/11 08:23:09;;;;;;;12.13;2.08;;;13.00;50.50;;;;;;4979691;28;20050;-44
2023/04/11 08:25:38;;;;;;;16.15;2.53;;;13.10;50.30;;;;;;4970037;28;20042;-44
2023/04/11 08:28:10;;;;;;;14.23;2.72;;;13.20;50.00;;;;;;4970085;28;20471;-43
2023/04/11 08:30:38;;;;;;;17.10;2.50;;;13.20;49.50;;;;;;4970983;28;20054;-43
2023/04/11 08:33:08;;;;;;;16.63;2.50;;;13.20;48.40;;;;;;4973032;28;20054;-45
2023/04/11 08:35:36;;;;;;;13.63;2.70;;;13.20;47.60;;;;;;4967454;28;20054;-45
2023/04/11 08:38:05;;;;;;;12.25;1.73;;;13.20;47.70;;;;;;4974847;28;20061;-43
2023/04/11 08:40:35;;;;;;;7.50;1.80;;;13.30;48.20;;;;;;4970211;28;20478;-43
2023/04/11 08:43:08;;;;;;;9.73;1.90;;;13.30;48.40;;;;;;4970659;28;20061;-42
2023/04/11 08:45:36;;;;;;;9.85;2.22;;;13.30;48.30;;;;;;4970414;28;20082;-46
2023/04/11 08:48:03;;;;;;;13.20;1.95;;;13.40;48.30;;;;;;4973312;28;20069;-44
2023/04/11 08:50:32;;;;;;;10.63;2.03;;;13.40;47.80;;;;;;4970137;28;20062;-43
2023/04/11 08:53:01;;;;;;;8.65;1.83;;;13.40;47.60;;;;;;4972851;28;20057;-43
2023/04/11 08:55:28;;;;;;;11.55;2.45;;;13.40;47.90;;;;;;4955446;28;20062;-44
2023/04/11 08:58:01;;;;;;;10.65;1.80;;;13.40;47.90;;;;;;4969017;28;20066;-46
2023/04/11 09:00:31;;;;;;;10.95;1.80;;;13.40;47.60;;;;;;4972590;28;20058;-44
2023/04/11 09:03:00;;;;;;;9.48;1.80;;;13.40;47.40;;;;;;4973622;28;20046;-46
2023/04/11 09:05:29;;;;;;;14.32;1.90;;;13.40;47.20;;;;;;4952551;28;20058;-44
2023/04/11 09:07:59;;;;;;;9.38;1.85;;;13.40;47.20;;;;;;4951032;28;20066;-44
2023/04/11 09:10:27;;;;;;;7.93;1.55;;;13.50;47.40;;;;;;4950541;28;20067;-44
2023/04/11 09:12:57;;;;;;;12.48;1.40;;;13.50;47.20;;;;;;4956736;28;20058;-44
2023/04/11 09:15:26;;;;;;;10.00;1.70;;;13.50;46.80;;;;;;4966162;28;20051;-44
2023/04/11 09:17:54;;;;;;;9.55;1.23;;;13.50;45.90;;;;;;4955139;28;20054;-44
2023/04/11 09:20:25;;;;;;;10.77;1.90;;;13.50;45.60;;;;;;4955328;28;20050;-43
2023/04/11 09:22:55;;;;;;;9.23;1.52;;;13.50;45.80;;;;;;4970770;28;20054;-45
2023/04/11 09:25:27;;;;;;;8.68;1.20;;;13.50;45.90;;;;;;4955198;28;20058;-43
2023/04/11 09:28:08;;;;;;;8.90;1.52;;;13.60;46.00;;;;;;4955110;28;20148;-44
2023/04/11 09:30:40;;;;;;;9.88;1.70;;;13.60;45.50;;;;;;4954662;28;20058;-43
2023/04/11 09:33:22;;;;;;;3.22;1.02;;;13.70;45.90;;;;;;4955912;28;20066;-43
2023/04/11 09:35:50;;;;;;;6.28;1.17;;;13.80;45.40;;;;;;4955851;28;20055;-44
2023/04/11 09:38:31;;;;;;;9.95;1.42;;;13.90;45.50;;;;;;4953948;28;20602;-45
2023/04/11 09:41:00;;;;;;;6.93;1.40;;;13.90;44.50;;;;;;4954698;28;20047;-49
2023/04/11 09:43:27;;;;;;;6.32;1.25;;;14.00;44.60;;;;;;4956561;28;20087;-45
2023/04/11 09:46:17;;;;;;;5.28;1.33;;;14.00;43.80;;;;;;4955141;28;20066;-43
2023/04/11 09:48:44;;;;;;;10.35;1.55;;;14.00;44.10;;;;;;4957258;28;20054;-44
2023/04/11 09:51:12;;;;;;;5.25;1.52;;;14.10;44.30;;;;;;4954053;28;20054;-45
2023/04/11 09:53:40;;;;;;;4.95;1.00;;;14.20;44.10;;;;;;4955387;28;20062;-44
2023/04/11 09:56:09;;;;;;;5.47;1.10;;;14.20;43.70;;;;;;4955859;28;20491;-46
2023/04/11 09:58:38;;;;;;;4.05;1.00;;;14.20;43.40;;;;;;4953079;28;20168;-46
2023/04/11 10:01:08;;;;;;;4.70;1.20;;;14.30;43.50;;;;;;4965735;28;20061;-44
2023/04/11 10:03:37;;;;;;;8.80;1.58;;;14.40;43.60;;;;;;4957258;28;20061;-46
2023/04/11 10:06:07;;;;;;;6.22;1.05;;;14.40;43.10;;;;;;4982772;28;20062;-42
2023/04/11 10:08:37;;;;;;;4.53;1.10;;;14.40;43.00;;;;;;4984018;28;20063;-45
2023/04/11 10:11:07;;;;;;;7.78;1.58;;;14.50;43.00;;;;;;4981194;28;20047;-43
2023/04/11 10:13:41;;;;;;;4.47;1.30;;;14.50;42.80;;;;;;4977968;28;20065;-45
2023/04/11 10:16:10;;;;;;;;;;;14.50;42.40;;;;;;4981610;28;20061;-42
2023/04/11 10:18:37;;;;;;;6.45;1.33;;;14.60;42.80;;;;;;4985144;28;19929;-43
2023/04/11 10:21:26;;;;;;;6.72;1.55;;;14.60;42.40;;;;;;4982798;28;20064;-45
2023/04/11 10:24:09;;;;;;;8.52;1.77;;;14.70;42.10;;;;;;4987549;28;20054;-46
2023/04/11 10:26:55;;;;;;;5.70;1.37;;;14.70;41.40;;;;;;4987133;28;20049;-44
2023/04/11 10:29:48;;;;;;;7.53;1.60;;;14.70;41.50;;;;;;4995359;28;20054;-45
2023/04/11 10:32:25;;;;;;;5.85;1.63;;;14.70;41.30;;;;;;4989167;28;20284;-44
2023/04/11 10:35:31;;;;;;;6.40;1.70;;;14.70;42.10;;;;;;4981066;28;20062;-48
2023/04/11 10:37:59;;;;;;;8.68;2.08;;;14.70;41.90;;;;;;4986236;28;20061;-44
2023/04/11 10:40:26;;;;;;;7.10;1.30;;;14.80;41.70;;;;;;4987636;28;20380;-44
2023/04/11 10:42:53;;;;;;;8.35;1.83;;;14.80;41.40;;;;;;4988228;28;20072;-45
2023/04/11 10:45:24;;;;;;;12.13;1.77;;;14.80;41.20;;;;;;4990914;28;20279;-43
2023/04/11 10:48:06;;;;;;;10.55;1.65;;;14.80;39.80;;;;;;4987348;28;20503;-45
2023/04/11 10:50:41;;;;;;;6.95;1.52;;;14.80;40.10;;;;;;4990264;28;20081;-44
2023/04/11 10:53:13;;;;;;;4.15;1.33;;;14.80;40.00;;;;;;4994666;28;20054;-43
2023/04/11 10:55:47;;;;;;;8.40;1.60;;;14.70;40.30;;;;;;4994020;28;20057;-43
2023/04/11 10:58:18;;;;;;;5.47;1.52;;;14.80;40.60;;;;;;4995743;28;20516;-52
2023/04/11 11:01:25;;;;;;;4.95;1.25;;;14.80;40.30;;;;;;4990744;28;20061;-44
2023/04/11 11:03:57;;;;;;;10.93;1.92;;;14.80;40.60;;;;;;4987305;28;20058;-51
2023/04/11 11:06:25;;;;;;;6.90;1.58;;;14.90;40.90;;;;;;4994533;28;20570;-45
2023/04/11 11:08:53;;;;;;;8.88;1.88;;;14.90;40.70;;;;;;4996368;28;20046;-44
2023/04/11 11:11:20;;;;;;;4.40;1.25;;;14.90;40.80;;;;;;4992743;28;20064;-44
2023/04/11 11:13:50;;;;;;;7.95;1.45;;;15.00;40.50;;;;;;4989377;28;20061;-43
2023/04/11 11:16:21;;;;;;;14.43;1.95;;;15.00;40.50;;;;;;5000973;28;20429;-43
2023/04/11 11:18:50;;;;;;;5.03;1.45;;;15.10;40.90;;;;;;5000023;28;20057;-44
2023/04/11 11:21:20;;;;;;;7.30;1.50;;;15.10;41.40;;;;;;4986034;28;20058;-43
2023/04/11 11:23:58;;;;;;;8.05;1.77;;;15.20;41.40;;;;;;5002574;28;20077;-44
2023/04/11 11:26:41;;;;;;;6.45;1.60;;;15.20;39.40;;;;;;4984290;28;20498;-43
2023/04/11 11:29:09;;;;;;;5.80;1.70;;;15.30;39.70;;;;;;4980685;28;20077;-45
2023/04/11 11:31:38;;;;;;;9.98;1.80;;;15.30;40.30;;;;;;4987717;28;20050;-43
2023/04/11 11:34:06;;;;;;;8.40;1.80;;;15.40;39.60;;;;;;4986579;28;20060;-45
2023/04/11 11:36:43;;;;;;;6.25;1.40;;;15.40;39.00;;;;;;4974655;28;20131;-43
2023/04/11 11:39:11;;;;;;;9.80;1.70;;;15.40;39.70;;;;;;4989113;28;20084;-45
2023/04/11 11:41:41;;;;;;;8.35;1.45;;;15.50;38.50;;;;;;4992267;28;20058;-44
2023/04/11 11:44:21;;;;;;;7.50;1.77;;;15.60;38.50;;;;;;4985675;28;20060;-45
2023/04/11 11:47:01;;;;;;;7.45;1.38;;;15.60;38.60;;;;;;4992472;28;20058;-45
2023/04/11 11:49:43;;;;;;;5.43;1.40;;;15.60;38.70;;;;;;4987559;28;21088;-43
2023/04/11 11:52:12;;;;;;;6.25;1.27;;;15.60;37.70;;;;;;4983564;28;20057;-44
2023/04/11 11:54:46;;;;;;;6.28;1.80;;;15.60;37.20;;;;;;4993487;28;20065;-43
2023/04/11 11:57:21;;;;;;;5.78;1.55;;;15.60;36.40;;;;;;4996802;28;20076;-44
2023/04/11 11:59:53;;;;;;;6.22;1.45;;;15.60;37.30;;;;;;5000727;28;20061;-45
2023/04/11 12:02:21;;;;;;;8.02;1.63;;;15.60;36.70;;;;;;4989022;28;20914;-45
2023/04/11 12:04:48;;;;;;;4.45;1.10;;;15.60;36.90;;;;;;4985091;28;20053;-45
2023/04/11 12:07:22;;;;;;;3.60;1.30;;;15.60;37.50;;;;;;4986152;28;20057;-45
2023/04/11 12:09:49;;;;;;;3.90;1.10;;;15.70;38.50;;;;;;4988497;28;20060;-47
2023/04/11 12:12:17;;;;;;;3.97;1.25;;;15.70;37.70;;;;;;4998989;28;20406;-44
2023/04/11 12:14:52;;;;;;;7.22;1.52;;;15.80;38.10;;;;;;4988471;28;20057;-44
2023/04/11 12:17:20;;;;;;;6.47;1.50;;;15.80;37.30;;;;;;5000285;28;20059;-47
2023/04/11 12:19:47;;;;;;;10.00;1.83;;;15.90;37.40;;;;;;4994828;28;20172;-43
2023/04/11 12:22:14;;;;;;;9.57;1.40;;;15.90;36.50;;;;;;4985032;28;20057;-44
2023/04/11 12:24:43;;;;;;;8.82;1.67;;;15.90;35.90;;;;;;4990910;28;20058;-46
2023/04/11 12:27:13;;;;;;;5.57;1.60;;;16.00;36.50;;;;;;4998490;28;20134;-43
2023/04/11 12:29:42;;;;;;;7.05;1.60;;;16.00;37.00;;;;;;4982031;28;20494;-45
2023/04/11 12:32:09;;;;;;;7.78;1.80;;;16.00;37.50;;;;;;4986740;28;20497;-43
2023/04/11 12:34:36;;;;;;;8.00;1.50;;;16.00;37.90;;;;;;4991256;28;20054;-45
2023/04/11 12:37:03;;;;;;;10.70;1.83;;;16.10;37.70;;;;;;4991756;28;20526;-44
2023/04/11 12:39:31;;;;;;;6.20;1.30;;;16.10;36.40;;;;;;4995512;28;20417;-43
2023/04/11 12:42:00;;;;;;;6.43;1.83;;;16.10;36.90;;;;;;4995819;28;20069;-43
2023/04/11 12:44:27;;;;;;;11.05;1.67;;;16.10;37.10;;;;;;4988763;28;20510;-44
2023/04/11 12:46:54;;;;;;;7.72;1.42;;;16.10;36.70;;;;;;4992395;28;20422;-43
2023/04/11 12:49:21;;;;;;;6.95;0.90;;;16.10;37.00;;;;;;4990854;28;20153;-44
2023/04/11 12:51:48;;;;;;;6.13;1.17;;;16.10;36.20;;;;;;4990922;28;20509;-43
2023/04/11 12:54:16;;;;;;;6.40;1.20;;;16.20;35.80;;;;;;4994507;28;20080;-44